Flight Track Log - Related Links

Times and Time Zones

All times are in EDT time to prevent confusion due to time zone crossing. See the CSJ405 flight status page for this flight to view local times or setup timezone preferences in your user account.

Time Position Orientation Groundspeed Altitude Reporting Facility
EDT Latitude Longitude Course Direction KTS MPH feet Rate Location/Type
Fri 01:07:55 AM 43.1667 -79.9000 360° North 20 23 800  Level Toronto Center
Fri 01:10:44 AM 43.1667 -79.9000 90° East 80 92 1,200 262 Climbing Toronto Center
Fri 01:11:44 AM 43.1667 -79.8667 90° East 90 104 1,800 650 Climbing Toronto Center
Fri 01:12:44 AM 43.1500 -79.8333 124° Southeast 90 104 2,500 700 Climbing Toronto Center
Fri 01:13:44 AM 43.1500 -79.8000 90° East 90 104 3,200 650 Climbing Toronto Center
Fri 01:14:44 AM 43.1500 -79.7667 90° East 90 104 3,800 200 Climbing Toronto Center
Fri 01:15:44 AM 43.1833 -79.7167 48° Northeast 100 115 3,600 650 Descending Toronto Center
Fri 01:16:44 AM 43.1833 -79.7000 90° East 100 115 5,100 1,100 Climbing Toronto Center
Fri 01:17:44 AM 43.2000 -79.6500 65° Northeast 100 115 5,800 650 Climbing Toronto Center
Fri 01:18:44 AM 43.2167 -79.6333 36° Northeast 100 115 6,400 600 Climbing Toronto Center
Fri 01:19:44 AM 43.2333 -79.6167 36° Northeast 100 115 7,000 350 Climbing Toronto Center
Fri 01:20:44 AM 43.2500 -79.5667 65° Northeast 120 138 7,100 50 Climbing Toronto Center
Fri 01:21:44 AM 43.2833 -79.5167 48° Northeast 150 173 7,100  Level Toronto Center
Fri 01:22:44 AM 43.3000 -79.4667 65° Northeast 150 173 7,100  Level Toronto Center
Fri 01:23:44 AM 43.3167 -79.4000 71° East 160 184 7,100  Level Toronto Center
Fri 01:24:44 AM 43.3500 -79.3500 47° Northeast 160 184 7,100  Level Toronto Center
Fri 01:25:44 AM 43.3667 -79.3167 55° Northeast 160 184 7,100  Level Toronto Center
Fri 01:26:44 AM 43.4000 -79.2667 47° Northeast 160 184 7,100  Level Toronto Center
Fri 01:27:44 AM 43.4167 -79.2167 65° Northeast 160 184 7,100  Level Toronto Center
Fri 01:28:44 AM 43.4333 -79.1500 71° East 160 184 7,100  Level Toronto Center
Fri 01:29:44 AM 43.4667 -79.1000 47° Northeast 160 184 7,100  Level Toronto Center
Fri 01:30:44 AM 43.4833 -79.0667 55° Northeast 160 184 7,100  Level Toronto Center
Fri 01:31:44 AM 43.5167 -79.0167 47° Northeast 160 184 7,100  Level Toronto Center
Fri 01:32:44 AM 43.5333 -78.9667 65° Northeast 160 184 7,100  Level Toronto Center
Fri 01:33:44 AM 43.5667 -78.9000 55° Northeast 160 184 7,100  Level Toronto Center
Fri 01:34:44 AM 43.5833 -78.8500 65° Northeast 160 184 7,100  Level Toronto Center
Fri 01:35:44 AM 43.6167 -78.8000 47° Northeast 160 184 7,100  Level Toronto Center
Fri 01:36:44 AM 43.6333 -78.7333 71° East 160 184 7,100  Level Toronto Center
Fri 01:37:44 AM 43.6667 -78.6833 47° Northeast 160 184 7,100  Level Toronto Center
Fri 01:38:44 AM 43.6833 -78.6333 65° Northeast 160 184 7,100  Level Toronto Center
Fri 01:39:44 AM 43.7167 -78.6000 36° Northeast 160 184 7,100  Level Toronto Center
Fri 01:40:44 AM 43.7333 -78.5500 65° Northeast 160 184 7,100  Level Toronto Center
Fri 01:41:44 AM 43.7500 -78.4833 71° East 160 184 7,100  Level Toronto Center
Fri 01:42:44 AM 43.7667 -78.4333 65° Northeast 160 184 7,100  Level Toronto Center
Fri 01:43:44 AM 43.8000 -78.3833 47° Northeast 160 184 7,100  Level Toronto Center
Fri 01:44:44 AM 43.8167 -78.3167 71° East 170 196 7,100  Level Toronto Center
Fri 01:45:44 AM 43.8500 -78.2667 47° Northeast 170 196 7,100  Level Toronto Center
Fri 01:46:44 AM 43.8667 -78.2167 65° Northeast 170 196 7,100  Level Toronto Center
Fri 01:47:44 AM 43.9000 -78.1500 55° Northeast 170 196 7,100  Level Toronto Center
Fri 01:48:44 AM 43.9167 -78.1000 65° Northeast 170 196 7,100  Level Toronto Center
Fri 01:49:44 AM 43.9500 -78.0500 47° Northeast 170 196 7,100  Level Toronto Center
Fri 01:50:44 AM 43.9667 -77.9833 71° East 170 196 7,100  Level Toronto Center
Fri 01:51:44 AM 44.0000 -77.9333 47° Northeast 170 196 7,100  Level Toronto Center
Fri 01:52:44 AM 44.0167 -77.9000 55° Northeast 170 196 7,100  Level Toronto Center
Fri 01:53:44 AM 44.0500 -77.8167 61° Northeast 170 196 7,100  Level Toronto Center
Fri 01:54:44 AM 44.0667 -77.7833 55° Northeast 170 196 7,100  Level Toronto Center
Fri 01:55:44 AM 44.1000 -77.7333 47° Northeast 160 184 7,100  Level Toronto Center
Fri 01:56:44 AM 44.1167 -77.6833 65° Northeast 160 184 7,100 -50 Level Toronto Center
Fri 01:57:44 AM 44.1500 -77.6167 55° Northeast 160 184 7,000 -50 Descending Toronto Center
Fri 01:58:44 AM 44.1667 -77.5667 65° Northeast 170 196 7,000  Level Toronto Center
Fri 02:00:47 AM 44.2167 -77.4500 59° Northeast 170 196 7,000  Level Toronto Center
Fri 02:01:47 AM 44.2500 -77.4000 47° Northeast 170 196 7,000  Level Toronto Center
Fri 02:02:47 AM 44.2667 -77.3500 65° Northeast 170 196 7,000  Level Toronto Center
Fri 02:03:47 AM 44.2833 -77.2833 71° East 160 184 7,000  Level Toronto Center
Fri 02:04:47 AM 44.3167 -77.2333 47° Northeast 170 196 7,000  Level Toronto Center
Fri 02:05:47 AM 44.3333 -77.1833 65° Northeast 170 196 7,000  Level Toronto Center
Fri 02:06:47 AM 44.3667 -77.1167 55° Northeast 170 196 7,000  Level Toronto Center
Fri 02:07:47 AM 44.3833 -77.0667 65° Northeast 170 196 7,000  Level Toronto Center
Fri 02:08:47 AM 44.4167 -77.0167 47° Northeast 160 184 7,000  Level Toronto Center
Fri 02:09:47 AM 44.4333 -76.9500 71° East 160 184 7,000  Level Toronto Center
Fri 02:10:47 AM 44.4500 -76.9000 65° Northeast 160 184 7,000  Level Toronto Center
Fri 02:11:47 AM 44.4833 -76.8500 47° Northeast 160 184 7,000  Level Toronto Center
Fri 02:12:47 AM 44.5000 -76.8000 65° Northeast 160 184 7,000  Level Toronto Center
Fri 02:13:47 AM 44.5333 -76.7500 47° Northeast 160 184 7,000  Level Toronto Center
Fri 02:14:47 AM 44.5500 -76.7000 65° Northeast 160 184 7,000  Level Toronto Center
Fri 02:15:47 AM 44.5667 -76.6333 71° East 160 184 7,000  Level Toronto Center
Fri 02:16:47 AM 44.5833 -76.5833 65° Northeast 160 184 7,000  Level Toronto Center
Fri 02:17:47 AM 44.6167 -76.5333 47° Northeast 150 173 7,000  Level Toronto Center
Fri 02:18:47 AM 44.6333 -76.5000 55° Northeast 160 184 7,000  Level Toronto Center
Fri 02:19:47 AM 44.6500 -76.4500 65° Northeast 150 173 7,000  Level Toronto Center
Fri 02:20:47 AM 44.6833 -76.4000 47° Northeast 150 173 7,000 50 Level Toronto Center
Fri 02:21:47 AM 44.7000 -76.3500 65° Northeast 150 173 7,100 50 Climbing Toronto Center
Fri 02:22:47 AM 44.7333 -76.2833 55° Northeast 150 173 7,100  Level Toronto Center
Fri 02:23:47 AM 44.7500 -76.2333 65° Northeast 150 173 7,100  Level Toronto Center
Fri 02:24:47 AM 44.7667 -76.1833 65° Northeast 150 173 7,100  Level Toronto Center
Fri 02:25:47 AM 44.8000 -76.1333 47° Northeast 150 173 7,100  Level Toronto Center
Fri 02:26:47 AM 44.8167 -76.0833 65° Northeast 150 173 7,100  Level Toronto Center
Fri 02:27:47 AM 44.8333 -76.0333 65° Northeast 150 173 7,100  Level Toronto Center
Fri 02:28:47 AM 44.8500 -75.9833 65° Northeast 150 173 7,100  Level Toronto Center
Fri 02:29:47 AM 44.8667 -75.9167 71° East 150 173 7,100  Level Toronto Center
Fri 02:30:47 AM 44.9000 -75.8667 47° Northeast 160 184 7,100  Level Toronto Center
Fri 02:31:47 AM 44.9167 -75.8167 65° Northeast 150 173 7,100 -50 Level Toronto Center
Fri 02:32:47 AM 44.9500 -75.7667 47° Northeast 160 184 7,000 -50 Descending Toronto Center
Fri 02:33:47 AM 44.9667 -75.7167 65° Northeast 160 184 7,000  Level Toronto Center
Fri 02:34:47 AM 45.0000 -75.6667 47° Northeast 160 184 7,000  Level Toronto Center
Fri 02:35:47 AM 45.0167 -75.6000 71° East 150 173 7,000  Level Toronto Center
Fri 02:36:47 AM 45.0167 -75.5500 90° East 150 173 7,000  Level Toronto Center
Fri 02:37:47 AM 45.0500 -75.5000 47° Northeast 150 173 7,000  Level Toronto Center
Fri 02:38:53 AM 45.0667 -75.4667 55° Northeast 150 173 7,000  Level Montreal Center
Fri 02:39:53 AM 45.1000 -75.4167 47° Northeast 150 173 7,000  Level Montreal Center
Fri 02:40:53 AM 45.1167 -75.3667 65° Northeast 150 173 7,000  Level Montreal Center
Fri 02:41:53 AM 45.1333 -75.3333 55° Northeast 150 173 7,000  Level Montreal Center
Fri 02:42:53 AM 45.1500 -75.2833 65° Northeast 150 173 7,000  Level Montreal Center
Fri 02:43:53 AM 45.1833 -75.2000 60° Northeast 150 173 7,000  Level Montreal Center
Fri 02:44:53 AM 45.2000 -75.1667 55° Northeast 150 173 7,000  Level Montreal Center
Fri 02:45:53 AM 45.2167 -75.1167 65° Northeast 150 173 7,000  Level Montreal Center
Fri 02:46:53 AM 45.2500 -75.0667 47° Northeast 150 173 7,000  Level Montreal Center
Fri 02:48:47 AM 45.2833 -74.9333 70° East 160 184 7,000  Level Toronto Center
Fri 02:49:47 AM 45.3167 -74.8833 47° Northeast 160 184 7,000  Level Toronto Center
Fri 02:50:47 AM 45.3333 -74.8167 70° East 160 184 7,000  Level Toronto Center
Fri 02:51:47 AM 45.3500 -74.7667 65° Northeast 160 184 7,000 -150 Level Toronto Center
Fri 02:52:47 AM 45.3833 -74.7167 46° Northeast 160 184 6,700 -400 Descending Toronto Center
Fri 02:53:47 AM 45.4000 -74.6667 65° Northeast 170 196 6,200 -450 Descending Toronto Center
Fri 02:54:47 AM 45.4167 -74.6000 70° East 170 196 5,800 -450 Descending Toronto Center
Fri 02:55:47 AM 45.4500 -74.5500 46° Northeast 160 184 5,300 -450 Descending Toronto Center
Fri 02:56:47 AM 45.4667 -74.5000 65° Northeast 160 184 4,900 -500 Descending Toronto Center
Fri 02:57:47 AM 45.5000 -74.4500 46° Northeast 160 184 4,300 -500 Descending Toronto Center
Fri 02:58:47 AM 45.5167 -74.3667 74° East 170 196 3,900 -400 Descending Toronto Center
Fri 02:59:47 AM 45.5167 -74.3167 90° East 170 196 3,500 -400 Descending Toronto Center
Fri 03:00:47 AM 45.5500 -74.2667 46° Northeast 170 196 3,100 -300 Descending Toronto Center
Fri 03:01:47 AM 45.5667 -74.2000 70° East 160 184 2,900 -231 Descending Toronto Center
Fri 03:02:31 AM 45.5833 -74.1500 65° Northeast 160 184 2,700 -364 Descending Toronto Center
Fri 03:02:53 AM 45.6000 -74.1667 325° Northwest 160 184 2,500 -585 Descending Montreal Center
Fri 03:03:53 AM 45.6167 -74.1000 70° East 160 184 1,900 -750 Descending Montreal Center
Fri 03:04:53 AM 45.6333 -74.0500 64° Northeast 150 173 1,000 -700 Descending Montreal Center
Fri 03:05:53 AM 45.6667 -74.0333 19° North 120 138 500 -500 Descending Montreal Center

Login

Don't have an account? Register now (free) for customized features, flight alerts, and more!